createdAt,value
2019-02-23T00:01:23.221Z,6.10
2019-02-23T00:03:52.105Z,5.22
2019-02-23T00:06:29.462Z,6.22
2019-02-23T00:08:51.790Z,5.83
2019-02-23T00:11:20.641Z,4.67
2019-02-23T00:13:49.561Z,4.60
2019-02-23T00:16:18.542Z,7.75
2019-02-23T00:18:47.501Z,6.78
2019-02-23T00:21:16.252Z,5.60
2019-02-23T00:23:45.155Z,5.20
2019-02-23T00:26:13.973Z,4.70
2019-02-23T00:28:42.814Z,3.95
2019-02-23T00:31:11.734Z,6.17
2019-02-23T00:33:40.704Z,4.37
2019-02-23T00:36:09.434Z,4.37
2019-02-23T00:38:38.394Z,4.65
2019-02-23T00:41:07.314Z,6.78
2019-02-23T00:43:36.153Z,5.90
2019-02-23T00:46:05.182Z,6.47
2019-02-23T00:48:33.998Z,4.12
2019-02-23T00:51:02.946Z,6.15
2019-02-23T00:53:31.807Z,5.05
2019-02-23T00:56:00.728Z,8.20
2019-02-23T00:58:29.621Z,4.35
2019-02-23T01:00:58.503Z,6.85
2019-02-23T01:03:27.411Z,8.13
2019-02-23T01:05:56.321Z,16.32
2019-02-23T01:08:25.191Z,4.20
2019-02-23T01:10:58.024Z,6.17
2019-02-23T01:13:24.688Z,6.33
2019-02-23T01:15:53.451Z,7.03
2019-02-23T01:18:22.340Z,6.58
2019-02-23T01:20:51.218Z,5.28
2019-02-23T01:23:20.028Z,4.05
2019-02-23T01:25:49.096Z,5.80
2019-02-23T01:28:18.475Z,5.17
2019-02-23T01:30:47.354Z,4.20
2019-02-23T01:33:16.264Z,5.55
2019-02-23T01:35:45.184Z,6.45
2019-02-23T01:38:14.054Z,5.40
2019-02-23T01:40:42.906Z,4.75
2019-02-23T01:43:11.857Z,4.10
2019-02-23T01:45:42.593Z,7.22
2019-02-23T01:48:11.230Z,5.60
2019-02-23T01:50:40.114Z,4.62
2019-02-23T01:53:08.929Z,4.22
2019-02-23T01:55:37.762Z,5.35
2019-02-23T01:58:06.591Z,4.33
2019-02-23T02:00:35.486Z,4.08
2019-02-23T02:03:04.325Z,5.17
2019-02-23T02:05:33.268Z,3.67
2019-02-23T02:08:02.211Z,6.30
2019-02-23T02:10:31.275Z,5.03
2019-02-23T02:13:00.053Z,4.20
2019-02-23T02:15:29.021Z,6.03
2019-02-23T02:17:57.982Z,5.00
2019-02-23T02:20:26.917Z,5.53
2019-02-23T02:22:55.876Z,5.50
2019-02-23T02:25:24.721Z,6.67
2019-02-23T02:27:53.627Z,4.97
2019-02-23T02:30:22.388Z,4.58
2019-02-23T02:32:51.192Z,5.35
2019-02-23T02:35:20.014Z,4.92
2019-02-23T02:37:49.005Z,4.08
2019-02-23T02:40:17.849Z,4.72
2019-02-23T02:42:46.810Z,4.55
2019-02-23T02:45:15.716Z,4.00
2019-02-23T02:47:44.465Z,4.03
2019-02-23T02:50:23.695Z,4.17
2019-02-23T02:52:43.878Z,3.70
2019-02-23T02:55:12.780Z,3.67
2019-02-23T02:57:41.583Z,4.00
2019-02-23T03:00:12.192Z,4.25
2019-02-23T03:02:41.078Z,3.85
2019-02-23T03:05:10.100Z,5.22
2019-02-23T03:07:39.005Z,6.53
2019-02-23T03:10:07.807Z,3.50
2019-02-23T03:12:36.730Z,4.50
2019-02-23T03:15:06.544Z,3.80
2019-02-23T03:17:35.456Z,5.87
2019-02-23T03:20:04.686Z,5.00
2019-02-23T03:22:33.588Z,7.78
2019-02-23T03:25:02.455Z,4.17
2019-02-23T03:27:31.390Z,4.17
2019-02-23T03:30:00.400Z,5.30
2019-02-23T03:32:29.124Z,6.97
2019-02-23T03:34:57.990Z,4.90
2019-02-23T03:37:26.908Z,5.25
2019-02-23T03:39:55.658Z,4.50
2019-02-23T03:42:24.534Z,4.37
2019-02-23T03:44:53.340Z,4.97
2019-02-23T03:47:22.078Z,5.92
2019-02-23T03:49:50.931Z,4.12
2019-02-23T03:52:19.860Z,4.62
2019-02-23T03:54:48.684Z,4.03
2019-02-23T03:57:17.425Z,5.12
2019-02-23T03:59:46.216Z,4.08
2019-02-23T04:02:14.988Z,4.35
2019-02-23T04:04:43.891Z,4.75
2019-02-23T04:07:12.749Z,4.30
2019-02-23T04:09:41.463Z,5.95
2019-02-23T04:12:10.258Z,5.28
2019-02-23T04:14:39.103Z,3.87
2019-02-23T04:17:07.952Z,4.37
2019-02-23T04:19:36.765Z,3.62
2019-02-23T04:22:05.627Z,5.67
2019-02-23T04:24:34.664Z,5.33
2019-02-23T04:27:03.662Z,3.92
2019-02-23T04:29:32.553Z,4.03
2019-02-23T04:32:01.943Z,4.50
2019-02-23T04:34:30.938Z,5.92
2019-02-23T04:36:59.868Z,4.00
2019-02-23T04:39:28.698Z,6.83
2019-02-23T04:41:57.653Z,3.77
2019-02-23T04:44:26.413Z,3.95
2019-02-23T04:46:55.328Z,6.22
2019-02-23T04:49:25.954Z,3.58
2019-02-23T04:51:54.788Z,3.55
2019-02-23T04:54:23.603Z,4.15
2019-02-23T04:56:52.477Z,3.75
2019-02-23T04:59:21.281Z,4.08
2019-02-23T05:01:50.207Z,3.37
2019-02-23T05:04:19.158Z,4.05
2019-02-23T05:06:48.014Z,4.37
2019-02-23T05:09:16.807Z,4.28
2019-02-23T05:11:45.643Z,6.10
2019-02-23T05:14:14.557Z,4.80
2019-02-23T05:16:43.360Z,6.22
2019-02-23T05:19:12.142Z,3.72
2019-02-23T05:21:41.083Z,4.00
2019-02-23T05:24:09.932Z,7.33
2019-02-23T05:26:38.887Z,5.22
2019-02-23T05:29:07.825Z,3.75
2019-02-23T05:31:36.571Z,4.37
2019-02-23T05:34:05.381Z,3.92
2019-02-23T05:36:34.264Z,4.72
2019-02-23T05:39:03.779Z,4.12
2019-02-23T05:41:32.513Z,5.20
2019-02-23T05:44:01.385Z,7.70
2019-02-23T05:46:30.182Z,4.75
2019-02-23T05:48:58.988Z,3.77
2019-02-23T05:51:38.338Z,6.53
2019-02-23T05:53:58.581Z,4.20
2019-02-23T05:56:27.444Z,4.40
2019-02-23T05:58:56.174Z,4.85
2019-02-23T06:01:25.008Z,5.08
2019-02-23T06:03:53.854Z,4.85
2019-02-23T06:06:22.714Z,4.85
2019-02-23T06:08:51.546Z,4.30
2019-02-23T06:11:20.567Z,6.20
2019-02-23T06:13:49.410Z,4.95
2019-02-23T06:16:18.215Z,4.28
2019-02-23T06:18:47.174Z,4.30
2019-02-23T06:21:15.996Z,5.33
2019-02-23T06:23:44.819Z,3.77
2019-02-23T06:26:13.704Z,7.92
2019-02-23T06:28:42.655Z,5.47
2019-02-23T06:31:11.444Z,4.72
2019-02-23T06:33:40.327Z,5.08
2019-02-23T06:36:09.240Z,6.42
2019-02-23T06:38:38.113Z,4.00
2019-02-23T06:41:07.160Z,5.08
2019-02-23T06:43:35.972Z,4.30
2019-02-23T06:46:04.764Z,4.40
2019-02-23T06:48:33.520Z,4.42
2019-02-23T06:51:02.393Z,4.50
2019-02-23T06:53:31.305Z,5.33
2019-02-23T06:56:00.176Z,5.95
2019-02-23T06:58:29.189Z,4.53
2019-02-23T07:00:58.008Z,3.83
2019-02-23T07:03:26.903Z,5.00
2019-02-23T07:05:55.820Z,4.12
2019-02-23T07:08:24.686Z,9.90
2019-02-23T07:10:53.504Z,6.30
2019-02-23T07:13:22.504Z,4.87
2019-02-23T07:15:51.487Z,6.45
2019-02-23T07:18:20.338Z,7.47
2019-02-23T07:20:49.233Z,7.12
2019-02-23T07:23:18.068Z,8.00
2019-02-23T07:25:46.843Z,5.47
2019-02-23T07:28:15.771Z,7.22
2019-02-23T07:30:44.546Z,5.75
2019-02-23T07:33:13.385Z,8.08
2019-02-23T07:35:42.212Z,6.72
2019-02-23T07:38:11.066Z,5.92
2019-02-23T07:40:39.909Z,6.60
2019-02-23T07:43:08.795Z,8.75
2019-02-23T07:45:37.603Z,7.35
2019-02-23T07:48:06.393Z,12.28
2019-02-23T07:50:35.355Z,11.55
2019-02-23T07:53:04.744Z,7.55
2019-02-23T07:55:33.777Z,8.73
2019-02-23T07:58:02.761Z,7.80
2019-02-23T08:00:31.699Z,8.30
2019-02-23T08:03:00.592Z,9.48
2019-02-23T08:05:29.451Z,9.15
2019-02-23T08:07:58.337Z,9.43
2019-02-23T08:10:27.160Z,9.40
2019-02-23T08:12:56.139Z,9.30
2019-02-23T08:15:25.109Z,10.70
2019-02-23T08:17:54.003Z,11.83
2019-02-23T08:20:22.892Z,10.03
2019-02-23T08:22:51.898Z,8.15
2019-02-23T08:25:20.746Z,11.73
2019-02-23T08:27:49.538Z,8.78
2019-02-23T08:30:18.622Z,7.33
2019-02-23T08:32:47.740Z,11.80
2019-02-23T08:35:16.623Z,10.93
2019-02-23T08:37:45.587Z,12.23
2019-02-23T08:40:14.457Z,9.58
2019-02-23T08:42:43.373Z,9.40
2019-02-23T08:45:12.176Z,21.45
2019-02-23T08:47:41.065Z,20.40
2019-02-23T08:50:11.335Z,22.62
2019-02-23T08:52:48.538Z,22.82
2019-02-23T08:55:11.017Z,45.23
2019-02-23T08:57:39.981Z,40.95
2019-02-23T09:00:11.767Z,48.08
2019-02-23T09:02:40.601Z,52.20
2019-02-23T09:05:10.438Z,32.05
2019-02-23T09:07:39.381Z,25.08
2019-02-23T09:10:09.650Z,23.65
2019-02-23T09:12:38.483Z,21.42
2019-02-23T09:15:07.455Z,26.68
2019-02-23T09:17:36.328Z,18.75
2019-02-23T09:20:05.249Z,15.83
2019-02-23T09:22:34.147Z,18.90
2019-02-23T09:25:03.051Z,17.65
2019-02-23T09:27:31.875Z,17.42
2019-02-23T09:30:00.818Z,15.43
2019-02-23T09:32:29.796Z,17.82
2019-02-23T09:34:58.702Z,16.95
2019-02-23T09:37:27.655Z,19.82
2019-02-23T09:39:56.512Z,15.25
2019-02-23T09:42:25.506Z,14.33
2019-02-23T09:44:54.574Z,18.32
2019-02-23T09:47:23.482Z,19.10
2019-02-23T09:49:52.372Z,15.90
2019-02-23T09:52:21.315Z,16.85
2019-02-23T09:54:50.203Z,17.57
2019-02-23T09:57:19.033Z,15.85
2019-02-23T09:59:47.952Z,15.88
2019-02-23T10:02:16.773Z,13.35
2019-02-23T10:04:45.765Z,15.10
2019-02-23T10:07:14.797Z,13.22
2019-02-23T10:09:43.582Z,12.90
2019-02-23T10:12:12.526Z,12.00
2019-02-23T10:14:41.424Z,12.82
2019-02-23T10:17:10.321Z,12.10
2019-02-23T10:19:39.057Z,13.72
2019-02-23T10:22:07.951Z,16.05
2019-02-23T10:24:36.902Z,13.83
2019-02-23T10:27:05.815Z,19.15
2019-02-23T10:29:34.777Z,15.23
2019-02-23T10:32:03.673Z,18.65
2019-02-23T10:34:32.885Z,15.88
2019-02-23T10:37:01.817Z,16.55
2019-02-23T10:39:30.711Z,12.40
2019-02-23T10:41:59.639Z,96.47
2019-02-23T10:44:28.572Z,29.23
2019-02-23T10:46:57.545Z,11.55
2019-02-23T10:49:26.498Z,12.05
2019-02-23T10:51:55.514Z,11.88
2019-02-23T10:54:24.472Z,10.80
2019-02-23T10:56:53.359Z,13.10
2019-02-23T10:59:22.373Z,10.55
2019-02-23T11:01:51.345Z,11.90
2019-02-23T11:04:20.287Z,14.05
2019-02-23T11:06:49.207Z,10.55
2019-02-23T11:09:22.287Z,9.93
2019-02-23T11:14:19.692Z,8.65
2019-02-23T11:16:48.793Z,10.63
2019-02-23T11:19:17.728Z,9.60
2019-02-23T11:21:46.718Z,9.23
2019-02-23T11:24:18.260Z,8.63
2019-02-23T11:26:46.348Z,9.50
2019-02-23T11:29:15.315Z,9.93
2019-02-23T11:31:44.526Z,10.05
2019-02-23T11:34:13.433Z,12.18
2019-02-23T11:36:42.645Z,9.98
2019-02-23T11:39:11.729Z,9.58
2019-02-23T11:41:41.599Z,7.17
2019-02-23T11:44:10.608Z,7.67
2019-02-23T11:46:39.597Z,9.03
2019-02-23T11:49:08.567Z,7.75
2019-02-23T11:51:37.564Z,7.20
2019-02-23T11:54:06.524Z,7.78
2019-02-23T11:56:35.330Z,7.20
2019-02-23T11:59:04.224Z,7.67
2019-02-23T12:01:33.282Z,9.98
2019-02-23T12:04:02.308Z,8.35
2019-02-23T12:06:31.199Z,11.10
2019-02-23T12:09:00.035Z,8.80
2019-02-23T12:11:28.976Z,7.78
2019-02-23T12:13:57.979Z,9.35
2019-02-23T12:16:27.016Z,7.37
2019-02-23T12:18:55.977Z,8.10
2019-02-23T12:21:25.049Z,7.60
2019-02-23T12:23:53.955Z,7.70
2019-02-23T12:26:22.925Z,9.10
2019-02-23T12:28:51.891Z,10.75
2019-02-23T12:31:20.739Z,10.43
2019-02-23T12:33:49.615Z,11.88
2019-02-23T12:36:18.577Z,8.65
2019-02-23T12:38:50.285Z,10.35
2019-02-23T12:41:19.100Z,9.28
2019-02-23T12:43:48.170Z,8.98
2019-02-23T12:46:17.073Z,11.08
2019-02-23T12:48:47.408Z,9.23
2019-02-23T12:51:16.431Z,8.05
2019-02-23T12:53:45.796Z,8.33
2019-02-23T12:56:14.759Z,8.68
2019-02-23T12:58:43.679Z,9.23
2019-02-23T13:01:12.680Z,8.98
2019-02-23T13:03:41.539Z,8.63
2019-02-23T13:06:10.464Z,9.25
2019-02-23T13:09:13.671Z,7.10
2019-02-23T13:11:44.586Z,7.35
2019-02-23T13:14:55.827Z,7.45
2019-02-23T13:18:18.619Z,7.97
2019-02-23T13:21:33.067Z,9.78
2019-02-23T13:24:32.857Z,10.55
2019-02-23T13:27:26.868Z,10.13
2019-02-23T13:30:24.703Z,11.60
2019-02-23T13:33:29.243Z,7.97
2019-02-23T13:36:43.505Z,12.23
2019-02-23T13:39:21.023Z,8.68
2019-02-23T13:42:05.742Z,8.05
2019-02-23T13:45:04.208Z,8.20
2019-02-23T13:48:30.516Z,28.32
2019-02-23T13:51:20.344Z,7.60
2019-02-23T13:54:57.646Z,7.37
2019-02-23T13:58:12.980Z,8.03
2019-02-23T14:01:13.718Z,8.80
2019-02-23T14:04:06.890Z,7.33
2019-02-23T14:07:07.248Z,7.20
2019-02-23T14:10:00.332Z,9.00
2019-02-23T14:12:57.652Z,8.90
2019-02-23T14:15:40.612Z,8.30
2019-02-23T14:19:05.878Z,9.23
2019-02-23T14:22:21.752Z,7.70
2019-02-23T14:25:15.455Z,7.80
2019-02-23T14:28:13.344Z,9.00
2019-02-23T14:31:19.205Z,7.35
2019-02-23T14:34:23.775Z,7.50
2019-02-23T14:37:29.581Z,8.65
2019-02-23T14:40:33.422Z,8.43
2019-02-23T14:46:32.993Z,10.68
2019-02-23T14:49:36.831Z,8.98
2019-02-23T14:55:13.370Z,7.33
2019-02-23T14:57:58.650Z,10.90
2019-02-23T15:00:52.809Z,7.78
2019-02-23T15:03:57.478Z,11.22
2019-02-23T15:06:43.189Z,9.60
2019-02-23T15:10:07.276Z,11.20
2019-02-23T15:13:23.144Z,10.38
2019-02-23T15:16:22.382Z,11.40
2019-02-23T15:19:38.328Z,9.33
2019-02-23T15:22:56.121Z,7.30
2019-02-23T15:26:14.777Z,8.73
2019-02-23T15:29:16.788Z,7.45
2019-02-23T15:32:24.560Z,9.35
2019-02-23T15:35:34.620Z,7.12
2019-02-23T15:38:43.370Z,6.78
2019-02-23T15:41:49.393Z,10.28
2019-02-23T15:44:34.962Z,6.95
2019-02-23T15:47:40.705Z,11.33
2019-02-23T15:50:13.231Z,7.35
2019-02-23T15:52:40.503Z,7.00
2019-02-23T15:55:09.392Z,8.08
2019-02-23T15:57:38.250Z,7.58
2019-02-23T16:00:07.809Z,8.20
2019-02-23T16:02:36.780Z,8.93
2019-02-23T16:05:05.823Z,7.92
2019-02-23T16:07:34.848Z,6.72
2019-02-23T16:10:03.796Z,9.45
2019-02-23T16:12:33.098Z,9.28
2019-02-23T16:15:02.187Z,7.35
2019-02-23T16:17:31.362Z,8.13
2019-02-23T16:20:00.298Z,7.50
2019-02-23T16:22:29.149Z,6.92
2019-02-23T16:24:58.097Z,7.20
2019-02-23T16:27:27.100Z,7.25
2019-02-23T16:29:56.258Z,10.10
2019-02-23T16:32:25.168Z,7.70
2019-02-23T16:34:54.099Z,8.38
2019-02-23T16:37:23.071Z,6.40
2019-02-23T16:39:52.214Z,8.00
2019-02-23T16:42:21.191Z,7.20
2019-02-23T16:44:50.193Z,9.08
2019-02-23T16:47:19.217Z,8.55
2019-02-23T16:49:48.612Z,8.15
2019-02-23T16:52:18.987Z,6.40
2019-02-23T16:54:49.029Z,7.15
2019-02-23T16:57:18.445Z,7.15
2019-02-23T16:59:47.991Z,8.05
2019-02-23T17:02:16.993Z,9.58
2019-02-23T17:04:53.441Z,6.03
2019-02-23T17:07:16.451Z,6.28
2019-02-23T17:09:45.381Z,5.92
2019-02-23T17:12:14.524Z,9.15
2019-02-23T17:14:43.810Z,7.33
2019-02-23T17:17:13.049Z,6.25
2019-02-23T17:19:42.334Z,8.10
2019-02-23T17:22:11.407Z,9.90
2019-02-23T17:24:40.344Z,7.22
2019-02-23T17:27:09.411Z,6.15
2019-02-23T17:29:38.730Z,6.58
2019-02-23T17:32:07.854Z,6.72
2019-02-23T17:34:36.932Z,6.30
2019-02-23T17:37:07.071Z,5.72
2019-02-23T17:39:36.410Z,7.22
2019-02-23T17:42:05.615Z,6.97
2019-02-23T17:44:34.806Z,6.00
2019-02-23T17:47:04.237Z,7.92
2019-02-23T17:49:33.610Z,6.47
2019-02-23T17:52:03.403Z,6.30
2019-02-23T17:54:32.650Z,9.20
2019-02-23T17:57:01.509Z,8.88
2019-02-23T17:59:30.898Z,7.30
2019-02-23T18:01:59.929Z,5.90
2019-02-23T18:04:28.917Z,6.12
2019-02-23T18:06:58.377Z,7.78
2019-02-23T18:09:27.747Z,10.03
2019-02-23T18:11:57.352Z,9.05
2019-02-23T18:14:27.048Z,9.10
2019-02-23T18:16:56.233Z,6.95
2019-02-23T18:19:25.299Z,6.28
2019-02-23T18:21:54.221Z,5.67
2019-02-23T18:24:23.398Z,5.80
2019-02-23T18:26:52.595Z,6.53
2019-02-23T18:29:22.015Z,8.90
2019-02-23T18:31:51.204Z,6.08
2019-02-23T18:34:20.781Z,6.85
2019-02-23T18:36:50.033Z,8.28
2019-02-23T18:39:19.446Z,5.75
2019-02-23T18:41:49.205Z,6.03
2019-02-23T18:44:18.784Z,6.12
2019-02-23T18:46:47.911Z,8.10
2019-02-23T18:49:16.962Z,7.17
2019-02-23T18:51:47.192Z,5.60
2019-02-23T18:54:16.419Z,6.35
2019-02-23T18:56:45.750Z,6.42
2019-02-23T18:59:14.894Z,6.42
2019-02-23T19:01:44.079Z,7.08
2019-02-23T19:04:13.295Z,6.75
2019-02-23T19:06:42.305Z,6.53
2019-02-23T19:09:11.621Z,5.92
2019-02-23T19:11:40.715Z,7.12
2019-02-23T19:14:09.935Z,5.08
2019-02-23T19:16:38.979Z,5.70
2019-02-23T19:19:08.038Z,5.62
2019-02-23T19:21:37.265Z,5.83
2019-02-23T19:24:06.312Z,6.42
2019-02-23T19:26:38.298Z,6.33
2019-02-23T19:29:06.294Z,5.05
2019-02-23T19:31:35.418Z,4.92
2019-02-23T19:34:04.589Z,5.67
2019-02-23T19:36:33.694Z,5.30
2019-02-23T19:39:03.039Z,5.70
2019-02-23T19:41:32.112Z,5.87
2019-02-23T19:44:01.146Z,5.30
2019-02-23T19:46:30.596Z,5.55
2019-02-23T19:49:01.902Z,6.05
2019-02-23T19:51:32.511Z,5.67
2019-02-23T19:54:02.253Z,5.17
2019-02-23T19:56:31.866Z,5.35
2019-02-23T19:59:02.009Z,6.35
2019-02-23T20:01:31.083Z,5.30
2019-02-23T20:04:00.647Z,5.72
2019-02-23T20:06:29.883Z,5.30
2019-02-23T20:08:58.976Z,5.37
2019-02-23T20:11:27.943Z,5.72
2019-02-23T20:13:57.039Z,5.92
2019-02-23T20:16:26.841Z,5.40
2019-02-23T20:18:56.261Z,5.15
2019-02-23T20:21:25.469Z,5.03
2019-02-23T20:23:54.716Z,5.00
2019-02-23T20:26:23.677Z,5.40
2019-02-23T20:28:52.701Z,4.83
2019-02-23T20:31:21.876Z,4.92
2019-02-23T20:33:51.711Z,4.85
2019-02-23T20:36:20.826Z,5.20
2019-02-23T20:38:50.516Z,6.00
2019-02-23T20:41:20.286Z,5.10
2019-02-23T20:43:50.037Z,6.05
2019-02-23T20:46:19.830Z,5.33
2019-02-23T20:48:49.178Z,5.12
2019-02-23T20:51:18.891Z,8.93
2019-02-23T20:53:48.370Z,6.08
2019-02-23T20:56:17.636Z,10.40
2019-02-23T20:58:47.080Z,13.25
2019-02-23T21:01:16.348Z,22.98
2019-02-23T21:03:46.605Z,19.77
2019-02-23T21:06:15.751Z,18.67
2019-02-23T21:08:45.268Z,18.02
2019-02-23T21:11:15.025Z,22.37
2019-02-23T21:13:44.167Z,20.08
2019-02-23T21:16:15.250Z,18.12
2019-02-23T21:18:44.549Z,16.57
2019-02-23T21:21:14.099Z,16.62
2019-02-23T21:23:43.965Z,18.70
2019-02-23T21:26:12.976Z,16.70
2019-02-23T21:28:42.243Z,16.55
2019-02-23T21:31:11.834Z,14.35
2019-02-23T21:33:41.109Z,16.05
2019-02-23T21:36:10.574Z,16.55
2019-02-23T21:38:40.084Z,15.95
2019-02-23T21:41:09.284Z,14.73
2019-02-23T21:43:38.432Z,16.27
2019-02-23T21:46:07.879Z,15.98
2019-02-23T21:48:36.957Z,18.67
2019-02-23T21:51:06.127Z,19.05
2019-02-23T21:53:35.189Z,23.62
2019-02-23T21:56:04.752Z,25.57
2019-02-23T21:58:33.611Z,25.55
2019-02-23T22:01:02.858Z,23.22
2019-02-23T22:03:32.339Z,22.32
2019-02-23T22:06:02.364Z,23.85
2019-02-23T22:08:31.807Z,21.97
2019-02-23T22:11:01.411Z,24.18
2019-02-23T22:13:30.628Z,21.73
2019-02-23T22:15:59.839Z,20.82
2019-02-23T22:18:28.938Z,18.95
2019-02-23T22:20:58.367Z,20.27
2019-02-23T22:23:27.418Z,20.08
2019-02-23T22:25:56.309Z,19.40
2019-02-23T22:28:25.424Z,18.70
2019-02-23T22:30:54.466Z,18.10
2019-02-23T22:33:23.620Z,17.67
2019-02-23T22:35:52.631Z,19.00
2019-02-23T22:38:21.657Z,18.00
2019-02-23T22:40:50.648Z,16.25
2019-02-23T22:43:19.598Z,17.42
2019-02-23T22:45:48.638Z,19.52
2019-02-23T22:48:17.720Z,16.25
2019-02-23T22:50:46.655Z,17.85
2019-02-23T22:53:15.674Z,16.95
2019-02-23T22:55:44.708Z,16.30
2019-02-23T22:58:13.696Z,16.48
2019-02-23T23:00:59.776Z,16.02
2019-02-23T23:03:28.726Z,14.05
2019-02-23T23:05:57.758Z,15.18
2019-02-23T23:08:26.742Z,15.55
2019-02-23T23:10:55.776Z,14.60
2019-02-23T23:13:24.724Z,13.78
2019-02-23T23:15:53.586Z,15.95
2019-02-23T23:18:22.552Z,14.55
2019-02-23T23:20:51.491Z,14.25
2019-02-23T23:23:20.431Z,16.17
2019-02-23T23:25:49.383Z,13.45
2019-02-23T23:28:18.336Z,13.28
2019-02-23T23:30:47.255Z,13.83
2019-02-23T23:33:16.247Z,12.85
2019-02-23T23:35:45.131Z,21.48
2019-02-23T23:38:14.025Z,13.78
2019-02-23T23:40:42.996Z,14.35
2019-02-23T23:43:11.947Z,14.65
2019-02-23T23:45:40.883Z,15.30
2019-02-23T23:48:09.782Z,13.40
2019-02-23T23:50:38.662Z,13.78
2019-02-23T23:53:07.714Z,15.18
2019-02-23T23:55:36.628Z,16.37
2019-02-23T23:58:05.558Z,13.45
